createdAt,value
2019-02-09T00:00:28.892Z,50.57
2019-02-09T00:03:33.649Z,50.83
2019-02-09T00:06:38.092Z,50.43
2019-02-09T00:09:42.915Z,48.60
2019-02-09T01:21:17.353Z,50.40
2019-02-09T01:24:22.231Z,50.60
2019-02-09T01:27:26.921Z,49.93
2019-02-09T01:30:31.872Z,51.30
2019-02-09T01:33:37.587Z,50.37
2019-02-09T01:36:42.341Z,48.93
2019-02-09T01:39:47.065Z,48.43
2019-02-09T01:42:51.812Z,50.47
2019-02-09T01:45:56.624Z,46.67
2019-02-09T01:49:01.559Z,45.37
2019-02-09T01:52:06.490Z,44.40
2019-02-09T01:55:11.137Z,44.93
2019-02-09T01:58:15.957Z,44.70
2019-02-09T02:01:20.692Z,42.43
2019-02-09T02:04:25.620Z,43.47
2019-02-09T02:07:30.442Z,42.37
2019-02-09T02:10:36.702Z,41.37
2019-02-09T02:13:41.520Z,40.23
2019-02-09T02:16:46.245Z,39.97
2019-02-09T02:19:51.100Z,38.47
2019-02-09T02:22:55.920Z,37.67
2019-02-09T02:26:00.558Z,36.40
2019-02-09T02:29:05.382Z,37.90
2019-02-09T02:32:10.230Z,33.93
2019-02-09T02:35:14.931Z,34.90
2019-02-09T02:38:19.669Z,34.03
2019-02-09T02:41:24.310Z,34.40
2019-02-09T02:44:29.120Z,30.67
2019-02-09T02:47:33.958Z,32.00
2019-02-09T02:50:38.680Z,31.80
2019-02-09T02:53:43.296Z,30.10
2019-02-09T02:56:47.948Z,29.10
2019-02-09T02:59:53.953Z,28.57
2019-02-09T03:02:58.726Z,28.07
2019-02-09T03:06:03.430Z,26.77
2019-02-09T03:09:09.505Z,26.10
2019-02-09T03:12:14.213Z,25.60
2019-02-09T03:15:21.219Z,25.83
2019-02-09T03:18:26.042Z,25.17
2019-02-09T03:21:30.883Z,23.97
2019-02-09T03:24:35.697Z,24.40
2019-02-09T03:27:40.429Z,22.67
2019-02-09T03:30:48.324Z,21.70
2019-02-09T03:33:51.639Z,21.83
2019-02-09T03:36:56.574Z,21.50
2019-02-09T03:40:01.509Z,19.87
2019-02-09T03:43:06.429Z,20.53
2019-02-09T03:46:11.157Z,20.30
2019-02-09T03:49:15.878Z,20.53
2019-02-09T03:52:20.835Z,21.37
2019-02-09T03:55:25.517Z,19.03
2019-02-09T03:58:29.979Z,18.57
2019-02-09T04:01:34.771Z,18.20
2019-02-09T04:04:39.521Z,17.53
2019-02-09T04:07:45.928Z,18.00
2019-02-09T04:10:50.731Z,15.80
2019-02-09T04:13:55.644Z,16.03
2019-02-09T04:17:00.394Z,16.40
2019-02-09T04:20:06.183Z,14.80
2019-02-09T04:23:10.760Z,15.03
2019-02-09T04:26:15.485Z,14.60
2019-02-09T04:29:20.227Z,15.07
2019-02-09T04:32:26.566Z,14.73
2019-02-09T04:38:35.628Z,13.57
2019-02-09T04:41:40.346Z,12.70
2019-02-09T04:44:45.187Z,12.63
2019-02-09T04:47:49.929Z,13.17
2019-02-09T04:50:54.627Z,12.27
2019-02-09T04:53:59.535Z,12.73
2019-02-09T04:57:04.401Z,12.37
2019-02-09T05:00:10.676Z,11.70
2019-02-09T05:03:15.484Z,12.57
2019-02-09T05:06:20.436Z,11.57
2019-02-09T05:09:25.154Z,11.87
2019-02-09T05:12:30.109Z,11.63
2019-02-09T05:15:34.958Z,10.60
2019-02-09T05:18:39.973Z,10.20
2019-02-09T05:21:44.902Z,11.43
2019-02-09T05:24:49.616Z,10.00
2019-02-09T05:27:54.463Z,10.17
2019-02-09T05:30:59.378Z,10.63
2019-02-09T05:34:04.124Z,11.40
2019-02-09T05:37:09.131Z,11.10
2019-02-09T05:40:15.616Z,10.93
2019-02-09T05:43:20.614Z,11.17
2019-02-09T05:46:25.262Z,12.70
2019-02-09T05:49:30.018Z,11.10
2019-02-09T05:52:34.727Z,12.30
2019-02-09T05:55:39.582Z,11.70
2019-02-09T05:58:44.633Z,12.47
2019-02-09T06:01:49.536Z,11.97
2019-02-09T06:04:54.362Z,11.67
2019-02-09T06:08:00.118Z,12.00
2019-02-09T06:11:04.831Z,11.80
2019-02-09T06:14:09.581Z,12.90
2019-02-09T06:17:14.281Z,12.23
2019-02-09T06:20:20.877Z,13.37
2019-02-09T06:23:25.706Z,13.60
2019-02-09T06:26:32.217Z,14.57
2019-02-09T06:29:36.776Z,14.60
2019-02-09T06:32:41.620Z,15.03
2019-02-09T06:35:46.343Z,12.73
2019-02-09T06:38:51.091Z,13.57
2019-02-09T06:41:55.947Z,13.60
2019-02-09T06:45:00.629Z,14.50
2019-02-09T06:48:19.703Z,15.83
2019-02-09T06:51:24.521Z,14.70
2019-02-09T06:54:29.366Z,14.70
2019-02-09T06:57:34.180Z,15.13
2019-02-09T07:00:39.025Z,17.00
2019-02-09T07:03:43.947Z,16.53
2019-02-09T07:06:48.560Z,18.50
2019-02-09T07:09:53.309Z,16.00
2019-02-09T07:12:58.024Z,17.53
2019-02-09T07:16:02.980Z,16.47
2019-02-09T07:19:07.663Z,18.87
2019-02-09T07:22:12.539Z,15.13
2019-02-09T07:25:17.342Z,18.57
2019-02-09T07:28:22.097Z,23.90
2019-02-09T07:31:27.065Z,21.87
2019-02-09T07:34:31.606Z,18.30
2019-02-09T07:37:36.375Z,15.50
2019-02-09T07:40:41.298Z,16.20
2019-02-09T07:43:46.095Z,20.97
2019-02-09T07:46:50.970Z,22.10
2019-02-09T07:49:55.913Z,21.70
2019-02-09T07:53:00.737Z,22.03
2019-02-09T07:56:05.680Z,20.07
2019-02-09T07:59:10.383Z,18.70
2019-02-09T08:02:15.108Z,22.00
2019-02-09T08:05:20.123Z,21.00
2019-02-09T08:08:24.950Z,23.43
2019-02-09T08:11:29.818Z,20.80
2019-02-09T08:14:34.520Z,21.97
2019-02-09T08:17:39.290Z,23.50
2019-02-09T08:20:44.100Z,35.43
2019-02-09T08:23:48.921Z,33.77
2019-02-09T08:26:53.845Z,35.27
2019-02-09T08:29:58.593Z,38.63
2019-02-09T08:33:03.509Z,45.50
2019-02-09T08:36:08.391Z,48.43
2019-02-09T08:39:13.280Z,48.00
2019-02-09T08:42:19.216Z,50.00
2019-02-09T08:45:23.871Z,52.97
2019-02-09T08:48:28.631Z,56.23
2019-02-09T08:51:33.630Z,60.53
2019-02-09T08:54:38.561Z,70.07
2019-02-09T08:57:43.287Z,69.73
2019-02-09T09:00:47.718Z,72.23
2019-02-09T09:03:52.538Z,73.60
2019-02-09T09:06:57.387Z,77.97
2019-02-09T09:10:02.232Z,86.30
2019-02-09T09:13:07.020Z,91.23
2019-02-09T09:16:13.409Z,94.80
2019-02-09T09:19:18.225Z,100.67
2019-02-09T09:22:23.165Z,101.07
2019-02-09T09:25:27.976Z,108.40
2019-02-09T09:28:32.953Z,108.43
2019-02-09T09:31:37.754Z,116.50
2019-02-09T09:34:42.579Z,118.77
2019-02-09T09:37:47.310Z,139.63
2019-02-09T09:40:52.260Z,134.73
2019-02-09T09:43:57.177Z,138.80
2019-02-09T09:47:02.070Z,140.30
2019-02-09T09:50:07.125Z,134.17
2019-02-09T09:53:13.763Z,132.10
2019-02-09T09:56:18.561Z,132.70
2019-02-09T09:59:25.526Z,134.07
2019-02-09T10:02:36.444Z,129.53
2019-02-09T10:05:36.630Z,134.30
2019-02-09T10:08:41.365Z,132.43
2019-02-09T10:11:46.171Z,132.43
2019-02-09T10:14:51.009Z,137.50
2019-02-09T10:17:55.945Z,133.87
2019-02-09T10:21:00.878Z,132.63
2019-02-09T10:24:05.520Z,142.13
2019-02-09T10:27:10.245Z,127.73
2019-02-09T10:30:19.800Z,129.93
2019-02-09T10:33:24.475Z,138.60
2019-02-09T10:36:29.115Z,145.50
2019-02-09T10:39:35.078Z,148.77
2019-02-09T10:42:39.846Z,150.20
2019-02-09T10:45:44.419Z,142.33
2019-02-09T10:48:49.278Z,142.77
2019-02-09T10:51:54.205Z,150.47
2019-02-09T10:54:59.044Z,160.00
2019-02-09T10:58:03.763Z,157.50
2019-02-09T11:01:26.414Z,159.80
2019-02-09T11:04:31.225Z,154.70
2019-02-09T11:07:36.075Z,151.80
2019-02-09T11:10:40.879Z,136.17
2019-02-09T11:13:45.902Z,142.03
2019-02-09T11:16:50.861Z,132.90
2019-02-09T11:19:55.750Z,137.10
2019-02-09T11:23:00.497Z,87.80
2019-02-09T11:26:05.142Z,75.40
2019-02-09T11:29:09.914Z,41.40
2019-02-09T11:32:15.994Z,52.80
2019-02-09T11:35:20.793Z,48.43
2019-02-09T11:38:25.587Z,46.90
2019-02-09T11:41:30.356Z,40.07
2019-02-09T11:44:41.005Z,38.57
2019-02-09T11:47:42.544Z,34.20
2019-02-09T11:50:47.358Z,34.73
2019-02-09T11:53:52.112Z,31.33
2019-02-09T11:56:57.012Z,28.63
2019-02-09T12:00:01.968Z,26.50
2019-02-09T12:03:14.626Z,31.67
2019-02-09T12:06:13.162Z,25.30
2019-02-09T12:09:18.194Z,29.70
2019-02-09T12:12:22.917Z,30.30
2019-02-09T12:15:29.320Z,33.33
2019-02-09T12:18:34.001Z,37.83
2019-02-09T12:21:38.841Z,47.00
2019-02-09T12:24:43.584Z,55.27
2019-02-09T12:27:48.301Z,63.10
2019-02-09T12:30:53.453Z,60.73
2019-02-09T12:33:58.066Z,59.97
2019-02-09T12:37:02.880Z,57.53
2019-02-09T12:40:09.270Z,58.37
2019-02-09T12:43:14.105Z,58.87
2019-02-09T12:46:19.015Z,56.23
2019-02-09T12:49:25.084Z,57.63
2019-02-09T12:52:29.551Z,56.43
2019-02-09T12:55:34.313Z,56.10
2019-02-09T12:58:39.073Z,53.10
2019-02-09T13:01:43.917Z,51.43
2019-02-09T13:04:48.725Z,88.87
2019-02-09T13:07:53.565Z,57.33
2019-02-09T13:10:58.286Z,51.90
2019-02-09T13:14:03.221Z,49.83
2019-02-09T13:17:08.053Z,47.37
2019-02-09T13:20:15.417Z,45.63
2019-02-09T13:23:20.261Z,43.97
2019-02-09T13:26:24.979Z,45.57
2019-02-09T13:29:29.855Z,45.40
2019-02-09T13:32:34.759Z,43.87
2019-02-09T13:35:39.485Z,41.77
2019-02-09T13:38:44.337Z,40.50
2019-02-09T13:41:49.133Z,38.80
2019-02-09T13:44:53.861Z,39.23
2019-02-09T13:47:59.002Z,40.37
2019-02-09T13:51:03.940Z,35.87
2019-02-09T13:54:08.766Z,36.10
2019-02-09T13:57:13.498Z,38.27
2019-02-09T14:00:19.959Z,36.13
2019-02-09T14:03:24.805Z,36.10
2019-02-09T14:06:29.618Z,36.63
2019-02-09T14:09:34.462Z,33.73
2019-02-09T14:12:38.984Z,33.57
2019-02-09T14:15:43.614Z,34.10
2019-02-09T14:18:48.528Z,34.67
2019-02-09T14:21:53.382Z,40.03
2019-02-09T14:24:58.189Z,26.17
2019-02-09T14:28:03.389Z,25.20
2019-02-09T14:31:08.182Z,22.23
2019-02-09T14:34:13.121Z,22.63
2019-02-09T14:37:17.923Z,23.80
2019-02-09T14:40:24.398Z,27.37
2019-02-09T14:43:29.212Z,25.93
2019-02-09T14:46:33.961Z,41.30
2019-02-09T14:49:38.656Z,32.47
2019-02-09T14:52:43.431Z,132.40
2019-02-09T14:55:48.242Z,42.27
2019-02-09T14:58:53.090Z,43.33
2019-02-09T15:01:57.930Z,45.57
2019-02-09T15:05:02.744Z,46.67
2019-02-09T15:08:07.852Z,50.53
2019-02-09T15:11:12.709Z,49.93
2019-02-09T15:14:18.516Z,54.87
2019-02-09T15:17:23.391Z,57.57
2019-02-09T15:20:30.980Z,43.17
2019-02-09T15:23:35.723Z,65.60
2019-02-09T15:26:40.540Z,71.43
2019-02-09T15:29:45.284Z,61.43
2019-02-09T15:32:50.089Z,63.77
2019-02-09T15:35:54.882Z,66.40
2019-02-09T15:38:59.634Z,68.70
2019-02-09T15:42:04.293Z,69.17
2019-02-09T15:45:10.340Z,66.70
2019-02-09T15:48:15.320Z,68.57
2019-02-09T15:51:19.982Z,66.47
2019-02-09T15:54:24.856Z,65.20
2019-02-09T15:57:29.665Z,64.20
2019-02-09T16:00:34.633Z,62.93
2019-02-09T16:03:39.429Z,60.60
2019-02-09T16:06:44.241Z,62.33
2019-02-09T16:09:49.089Z,65.67
2019-02-09T16:12:53.955Z,62.90
2019-02-09T16:15:58.642Z,61.00
2019-02-09T16:19:03.482Z,60.90
2019-02-09T16:22:07.879Z,60.07
2019-02-09T16:25:12.311Z,57.73
2019-02-09T16:28:17.044Z,58.70
2019-02-09T16:31:22.026Z,59.63
2019-02-09T16:34:26.452Z,58.10
2019-02-09T16:37:31.268Z,58.00
2019-02-09T16:40:35.874Z,53.70
2019-02-09T16:43:41.808Z,56.63
2019-02-09T16:46:46.658Z,53.77
2019-02-09T16:49:51.465Z,51.17
2019-02-09T16:52:57.209Z,52.40
2019-02-09T16:56:02.107Z,51.80
2019-02-09T16:59:06.876Z,68.70
2019-02-09T17:02:11.722Z,60.00
2019-02-09T17:05:16.658Z,53.37
2019-02-09T17:08:21.223Z,60.20
2019-02-09T17:11:26.005Z,59.67
2019-02-09T17:14:30.955Z,65.87
2019-02-09T17:17:35.872Z,65.67
2019-02-09T17:20:40.655Z,65.27
2019-02-09T17:23:45.338Z,65.30
2019-02-09T17:26:50.184Z,65.97
2019-02-09T17:29:54.714Z,66.97
2019-02-09T17:32:59.569Z,64.43
2019-02-09T17:36:04.343Z,65.00
2019-02-09T17:39:08.774Z,63.17
2019-02-09T17:42:13.602Z,64.37
2019-02-09T17:45:21.230Z,62.27
2019-02-09T17:48:26.114Z,64.97
2019-02-09T17:51:30.853Z,65.57
2019-02-09T17:54:35.784Z,68.43
2019-02-09T17:57:40.639Z,56.37
2019-02-09T18:00:50.249Z,70.07
2019-02-09T18:03:54.985Z,71.33
2019-02-09T18:06:59.797Z,69.90
2019-02-09T18:10:05.179Z,72.30
2019-02-09T18:13:10.082Z,68.70
2019-02-09T18:16:14.615Z,69.70
2019-02-09T18:19:19.535Z,70.00
2019-02-09T18:22:24.489Z,66.83
2019-02-09T18:25:29.307Z,65.07
2019-02-09T18:28:34.175Z,65.50
2019-02-09T18:31:38.670Z,56.53
2019-02-09T18:34:43.417Z,58.53
2019-02-09T18:37:48.105Z,57.80
2019-02-09T18:40:53.070Z,56.57
2019-02-09T18:43:57.768Z,55.43
2019-02-09T18:47:02.395Z,37.97
2019-02-09T18:50:07.449Z,40.77
2019-02-09T18:53:12.165Z,40.13
2019-02-09T18:56:17.793Z,38.73
2019-02-09T18:59:22.548Z,45.10
2019-02-09T19:02:28.363Z,55.23
2019-02-09T19:05:33.256Z,42.77
2019-02-09T19:08:38.065Z,40.73
2019-02-09T19:11:42.901Z,43.23
2019-02-09T19:14:48.838Z,38.80
2019-02-09T19:17:53.676Z,39.17
2019-02-09T19:20:59.936Z,37.83
2019-02-09T19:24:04.775Z,36.90
2019-02-09T19:27:09.485Z,35.47
2019-02-09T19:30:19.560Z,33.43
2019-02-09T19:33:24.377Z,74.20
2019-02-09T19:36:30.514Z,35.63
2019-02-09T19:39:35.262Z,32.90
2019-02-09T19:42:39.941Z,32.83
2019-02-09T19:45:44.730Z,32.77
2019-02-09T19:48:49.378Z,33.70
2019-02-09T19:51:54.304Z,31.73
2019-02-09T19:54:59.014Z,49.07
2019-02-09T19:58:03.991Z,49.43
2019-02-09T20:01:08.656Z,48.10
2019-02-09T20:04:14.917Z,46.03
2019-02-09T20:07:19.665Z,44.00
2019-02-09T20:10:26.454Z,44.90
2019-02-09T20:13:30.953Z,42.20
2019-02-09T20:16:35.603Z,42.93
2019-02-09T20:19:40.211Z,39.87
2019-02-09T20:22:45.052Z,39.40
2019-02-09T20:25:49.975Z,39.93
2019-02-09T20:28:54.708Z,38.30
2019-02-09T20:31:59.522Z,38.40
2019-02-09T20:35:04.681Z,36.73
2019-02-09T20:38:09.603Z,36.77
2019-02-09T20:41:14.608Z,36.37
2019-02-09T20:44:19.358Z,35.13
2019-02-09T20:47:24.217Z,35.03
2019-02-09T20:50:28.913Z,34.80
2019-02-09T20:53:33.757Z,33.63
2019-02-09T20:56:38.497Z,33.97
2019-02-09T20:59:43.217Z,32.23
2019-02-09T21:02:48.057Z,34.13
2019-02-09T21:05:52.658Z,40.30
2019-02-09T21:08:57.404Z,34.50
2019-02-09T21:12:03.565Z,42.50
2019-02-09T21:15:08.701Z,35.80
2019-02-09T21:18:13.506Z,34.37
2019-02-09T21:21:18.274Z,35.47
2019-02-09T21:24:22.972Z,36.60
2019-02-09T21:27:27.717Z,36.83
2019-02-09T21:30:32.524Z,37.07
2019-02-09T21:33:37.395Z,59.67
2019-02-09T21:36:42.197Z,55.63
2019-02-09T21:39:47.044Z,62.40
2019-02-09T21:42:51.858Z,68.50
2019-02-09T21:45:56.713Z,69.87
2019-02-09T21:49:01.403Z,72.60
2019-02-09T21:52:06.244Z,77.83
2019-02-09T21:55:11.702Z,70.47
2019-02-09T21:58:16.535Z,78.20
2019-02-09T22:01:21.354Z,79.63
2019-02-09T22:04:26.078Z,78.67
2019-02-09T22:07:30.800Z,75.87
2019-02-09T22:10:35.435Z,73.63
2019-02-09T22:13:40.260Z,75.87
2019-02-09T22:16:45.150Z,73.00
2019-02-09T22:19:49.717Z,75.23
2019-02-09T22:22:54.565Z,79.50
2019-02-09T22:25:59.481Z,75.67
2019-02-09T22:29:04.430Z,74.47
2019-02-09T22:32:09.248Z,77.70
2019-02-09T22:35:13.884Z,78.17
2019-02-09T22:38:18.687Z,73.10
2019-02-09T22:41:23.430Z,72.90
2019-02-09T22:44:28.145Z,71.93
2019-02-09T22:47:33.108Z,75.53
2019-02-09T22:50:40.051Z,70.00
2019-02-09T22:53:44.587Z,69.97
2019-02-09T22:56:49.304Z,67.60
2019-02-09T22:59:54.259Z,67.83
2019-02-09T23:02:59.335Z,68.50
2019-02-09T23:06:52.773Z,66.63
2019-02-09T23:09:56.037Z,66.53
2019-02-09T23:13:00.966Z,66.13
2019-02-09T23:16:05.807Z,65.23
2019-02-09T23:19:10.500Z,63.57
2019-02-09T23:22:15.053Z,65.10
2019-02-09T23:25:19.878Z,64.90
2019-02-09T23:28:24.806Z,62.60
2019-02-09T23:31:29.626Z,64.03
2019-02-09T23:34:34.398Z,63.43
2019-02-09T23:37:39.302Z,59.40
2019-02-09T23:40:44.135Z,61.03
2019-02-09T23:43:48.849Z,58.50
2019-02-09T23:46:53.704Z,57.73
2019-02-09T23:49:58.407Z,55.17
2019-02-09T23:53:03.266Z,55.23
2019-02-09T23:56:08.061Z,55.50
2019-02-09T23:59:12.832Z,55.70
